Time;durP1;ratioP1;P1;durP2;ratioP2;P2;SDS_P1;SDS_P2;PMS_P1;PMS_P2;Temp;Humidity;BMP_temperature;BMP_pressure;BME280_temperature;BME280_humidity;BME280_pressure;Samples;Min_cycle;Max_cycle;Signal;HPM_P1;HPM_P2
2022/10/13 00:00:44;;;;;;;0.52;0.20;;;;;;;7.11;73.41;100221.66;4971308;28;20039;-65
2022/10/13 00:03:10;;;;;;;0.10;0.10;;;;;;;7.02;73.79;100232.88;4968827;28;20137;-65
2022/10/13 00:05:40;;;;;;;0.10;0.10;;;;;;;6.90;74.28;100223.94;4970197;28;20062;-65
2022/10/13 00:08:06;;;;;;;0.10;0.10;;;;;;;6.78;74.64;100224.78;4967605;28;20619;-65
2022/10/13 00:10:36;;;;;;;0.10;0.10;;;;;;;6.65;75.44;100227.78;4967674;28;20177;-65
2022/10/13 00:13:04;;;;;;;0.13;0.13;;;;;;;6.51;75.88;100227.16;4965844;28;20187;-66
2022/10/13 00:15:30;;;;;;;0.10;0.10;;;;;;;6.39;76.62;100221.75;4968915;28;20054;-65
2022/10/13 00:17:56;;;;;;;0.10;0.10;;;;;;;6.29;77.15;100226.94;4972028;28;20081;-66
2022/10/13 00:20:22;;;;;;;0.10;0.10;;;;;;;6.23;77.60;100228.69;4988483;28;20050;-63
2022/10/13 00:22:48;;;;;;;0.10;0.10;;;;;;;6.20;77.92;100237.31;4988130;28;20664;-62
2022/10/13 00:25:14;;;;;;;0.10;0.10;;;;;;;6.14;78.06;100227.41;4990785;28;20557;-63
2022/10/13 00:27:40;;;;;;;0.10;0.10;;;;;;;6.11;78.37;100223.28;4986093;28;20050;-63
2022/10/13 00:30:08;;;;;;;0.10;0.10;;;;;;;6.10;78.65;100235.19;4987662;28;20112;-64
2022/10/13 00:32:36;;;;;;;0.10;0.10;;;;;;;6.10;78.64;100238.75;4986942;28;20046;-63
2022/10/13 00:35:04;;;;;;;0.20;0.20;;;;;;;6.10;78.80;100238.75;4985712;28;20054;-63
2022/10/13 00:37:30;;;;;;;0.10;0.10;;;;;;;6.12;78.87;100234.97;4968839;28;20046;-68
2022/10/13 00:39:56;;;;;;;0.10;0.10;;;;;;;6.09;78.92;100242.53;4984060;28;20533;-63
2022/10/13 00:42:25;;;;;;;0.10;0.10;;;;;;;6.10;79.15;100244.19;4984197;28;20450;-65
2022/10/13 00:45:03;;;;;;;0.10;0.10;;;;;;;6.12;79.14;100243.94;4981627;28;20046;-66
2022/10/13 00:47:37;;;;;;;0.10;0.10;;;;;;;6.09;79.06;100242.53;4967497;28;20463;-66
2022/10/13 00:50:06;;;;;;;0.10;0.10;;;;;;;6.06;79.10;100239.44;4969682;28;20057;-65
2022/10/13 00:52:32;;;;;;;0.10;0.10;;;;;;;6.05;79.39;100246.75;4966256;28;20111;-66
2022/10/13 00:55:00;;;;;;;0.20;0.20;;;;;;;6.03;79.40;100240.72;4967275;28;20061;-66
2022/10/13 00:57:26;;;;;;;0.10;0.10;;;;;;;6.01;79.48;100253.72;4966315;28;20053;-67
2022/10/13 00:59:52;;;;;;;0.13;0.13;;;;;;;5.92;79.60;100247.75;4965389;28;20050;-66
2022/10/13 01:02:19;;;;;;;0.10;0.10;;;;;;;5.83;79.85;100249.16;4968829;28;20439;-65
2022/10/13 01:04:47;;;;;;;0.10;0.10;;;;;;;5.73;80.19;100251.63;4968876;28;20412;-65
2022/10/13 01:07:16;;;;;;;0.10;0.10;;;;;;;5.66;80.50;100251.72;4965285;28;20043;-65
2022/10/13 01:09:42;;;;;;;0.10;0.10;;;;;;;5.62;80.72;100247.78;4965071;28;20051;-65
2022/10/13 01:12:22;;;;;;;0.10;0.10;;;;;;;5.61;80.98;100257.00;4976731;28;20544;-65
2022/10/13 01:14:55;;;;;;;0.10;0.10;;;;;;;5.58;81.11;100255.59;4967565;28;20489;-65
2022/10/13 01:17:29;;;;;;;0.10;0.10;;;;;;;5.58;81.33;100247.44;4966665;28;20043;-64
2022/10/13 01:20:33;;;;;;;0.10;0.10;;;;;;;5.66;81.34;100244.38;4966016;28;20565;-65
2022/10/13 01:23:13;;;;;;;0.20;0.10;;;;;;;5.72;80.93;100255.41;4984656;28;20057;-63
2022/10/13 01:26:00;;;;;;;0.10;0.10;;;;;;;5.74;80.70;100259.50;4965383;28;20669;-66
2022/10/13 01:28:48;;;;;;;0.10;0.10;;;;;;;5.76;80.66;100256.56;4965591;28;20042;-65
2022/10/13 01:31:20;;;;;;;0.10;0.10;;;;;;;5.75;80.72;100257.63;4966889;28;20569;-65
2022/10/13 01:33:54;;;;;;;0.10;0.10;;;;;;;5.76;80.75;100262.00;4983312;28;20057;-63
2022/10/13 01:36:25;;;;;;;0.17;0.10;;;;;;;5.76;80.79;100256.56;4986582;28;20054;-65
2022/10/13 01:38:56;;;;;;;0.10;0.10;;;;;;;5.75;80.80;100263.88;4987720;28;20508;-65
2022/10/13 01:41:30;;;;;;;0.10;0.10;;;;;;;5.75;80.77;100261.16;4986665;28;20057;-66
2022/10/13 01:44:02;;;;;;;0.10;0.10;;;;;;;5.79;80.68;100264.25;4986407;28;20522;-66
2022/10/13 01:46:33;;;;;;;0.13;0.13;;;;;;;5.87;80.66;100260.38;4984948;28;20046;-65
2022/10/13 01:49:02;;;;;;;0.10;0.10;;;;;;;5.95;80.26;100260.06;4985081;28;20078;-64
2022/10/13 01:51:30;;;;;;;0.10;0.10;;;;;;;6.04;79.63;100260.56;4984106;28;20065;-64
2022/10/13 01:53:56;;;;;;;;;;;;;;;6.11;79.47;100258.56;4984456;28;20145;-65
2022/10/13 01:56:22;;;;;;;0.10;0.10;;;;;;;6.13;79.09;100264.59;4966669;28;20020;-65
2022/10/13 01:58:50;;;;;;;0.10;0.10;;;;;;;6.13;79.14;100259.16;4985944;28;20133;-63
2022/10/13 02:01:28;;;;;;;0.20;0.20;;;;;;;6.11;78.86;100269.44;4984350;28;20470;-65
2022/10/13 02:04:08;;;;;;;0.10;0.10;;;;;;;6.02;78.99;100262.69;4983568;28;20128;-66
2022/10/13 02:06:40;;;;;;;0.10;0.10;;;;;;;6.02;79.25;100265.41;4985566;28;20494;-64
2022/10/13 02:09:13;;;;;;;0.10;0.10;;;;;;;6.02;79.21;100270.84;4987783;28;20521;-65
2022/10/13 02:11:50;;;;;;;0.10;0.10;;;;;;;6.04;79.21;100272.25;4984555;28;20128;-65
2022/10/13 02:14:21;;;;;;;0.10;0.10;;;;;;;6.06;78.99;100272.03;4981413;28;20054;-66
2022/10/13 02:16:50;;;;;;;0.10;0.10;;;;;;;6.02;79.11;100273.56;4986764;28;20109;-66
2022/10/13 02:19:18;;;;;;;0.10;0.10;;;;;;;6.01;79.08;100275.44;4986980;28;20042;-66
2022/10/13 02:21:44;;;;;;;0.10;0.10;;;;;;;6.02;79.02;100281.69;4984160;28;20057;-66
2022/10/13 02:24:11;;;;;;;0.80;0.20;;;;;;;6.02;79.10;100273.56;4967096;28;20042;-65
2022/10/13 02:26:38;;;;;;;0.10;0.10;;;;;;;6.05;79.18;100282.03;4982459;28;20053;-65
2022/10/13 02:29:12;;;;;;;0.10;0.10;;;;;;;6.07;78.92;100277.19;4981897;28;20046;-66
2022/10/13 02:31:38;;;;;;;0.10;0.10;;;;;;;6.10;78.98;100279.47;4984999;28;20143;-66
2022/10/13 02:34:05;;;;;;;0.10;0.10;;;;;;;6.16;78.81;100279.59;4985693;28;20081;-66
2022/10/13 02:36:33;;;;;;;0.10;0.10;;;;;;;6.19;78.54;100279.97;4985129;28;20153;-65
2022/10/13 02:38:59;;;;;;;0.13;0.13;;;;;;;6.24;78.50;100274.66;4985401;28;20464;-65
2022/10/13 02:41:25;;;;;;;0.10;0.10;;;;;;;6.29;78.32;100282.09;4969587;28;20470;-66
2022/10/13 02:43:51;;;;;;;0.10;0.10;;;;;;;6.37;77.97;100291.78;4987472;28;20046;-64
2022/10/13 02:46:17;;;;;;;0.10;0.10;;;;;;;6.41;77.87;100278.56;4989533;28;20043;-65
2022/10/13 02:48:43;;;;;;;1.27;0.10;;;;;;;6.43;77.66;100281.88;4988079;28;20569;-65
2022/10/13 02:51:09;;;;;;;0.10;0.10;;;;;;;6.43;77.66;100282.69;4970339;28;20046;-65
2022/10/13 02:53:37;;;;;;;0.10;0.10;;;;;;;6.41;77.38;100282.09;4986746;28;20046;-65
2022/10/13 02:56:04;;;;;;;0.10;0.10;;;;;;;6.38;77.69;100288.00;4987600;28;20073;-65
2022/10/13 02:58:31;;;;;;;0.10;0.10;;;;;;;6.36;77.78;100288.22;4984395;28;20536;-65
2022/10/13 03:01:04;;;;;;;0.28;0.10;;;;;;;6.31;77.74;100279.97;4988674;28;20049;-67
2022/10/13 03:03:30;;;;;;;0.10;0.10;;;;;;;6.34;77.94;100284.94;4988854;28;20050;-65
2022/10/13 03:05:56;;;;;;;0.10;0.10;;;;;;;6.33;77.90;100282.47;4971995;28;20062;-65
2022/10/13 03:08:23;;;;;;;0.10;0.10;;;;;;;6.33;77.92;100288.72;4971613;28;20133;-66
2022/10/13 03:10:51;;;;;;;0.10;0.10;;;;;;;6.34;78.00;100289.53;4989683;28;20377;-64
2022/10/13 03:13:17;;;;;;;0.10;0.10;;;;;;;6.34;77.83;100295.78;4989609;28;20488;-65
2022/10/13 03:15:43;;;;;;;0.10;0.10;;;;;;;6.33;77.84;100291.41;4990443;28;20153;-65
2022/10/13 03:18:09;;;;;;;0.10;0.10;;;;;;;6.36;77.92;100293.66;4988431;28;20449;-66
2022/10/13 03:20:35;;;;;;;0.10;0.10;;;;;;;6.37;77.86;100289.06;4971607;28;20043;-65
2022/10/13 03:23:01;;;;;;;0.10;0.10;;;;;;;6.34;78.08;100289.53;4968684;28;20047;-65
2022/10/13 03:25:27;;;;;;;0.10;0.10;;;;;;;6.38;77.96;100291.53;4970646;28;20059;-66
2022/10/13 03:27:55;;;;;;;0.10;0.10;;;;;;;6.37;77.86;100298.03;4965024;28;20399;-64
2022/10/13 03:30:21;;;;;;;0.32;0.20;;;;;;;6.36;78.17;100288.22;4952596;28;20485;-65
2022/10/13 03:32:47;;;;;;;0.10;0.10;;;;;;;6.38;78.07;100296.16;4979015;28;20053;-66
2022/10/13 03:35:13;;;;;;;0.20;0.20;;;;;;;6.36;78.02;100296.38;4985210;28;20046;-65
2022/10/13 03:37:40;;;;;;;0.10;0.10;;;;;;;6.29;78.05;100297.53;4966817;28;20634;-66
2022/10/13 03:40:07;;;;;;;0.10;0.10;;;;;;;6.28;78.51;100295.91;4971709;28;20105;-65
2022/10/13 03:42:34;;;;;;;;;;;;;;;6.26;78.38;100298.88;4985238;28;20113;-65
2022/10/13 03:45:01;;;;;;;0.10;0.10;;;;;;;6.20;78.30;100299.78;4987124;28;19937;-65
2022/10/13 03:47:29;;;;;;;0.10;0.10;;;;;;;6.13;78.55;100296.34;4987380;28;20835;-66
2022/10/13 03:49:55;;;;;;;0.10;0.10;;;;;;;6.08;78.90;100305.19;4986161;28;20097;-63
2022/10/13 03:52:22;;;;;;;0.10;0.10;;;;;;;6.12;78.85;100305.56;4985071;28;20096;-64
2022/10/13 03:54:48;;;;;;;0.10;0.10;;;;;;;6.17;78.98;100305.69;4984929;28;20050;-63
2022/10/13 03:57:14;;;;;;;0.10;0.10;;;;;;;6.22;78.83;100309.34;4988836;28;20137;-63
2022/10/13 03:59:40;;;;;;;0.35;0.10;;;;;;;6.32;78.67;100308.78;4970438;28;20265;-63
2022/10/13 04:02:08;;;;;;;0.22;0.20;;;;;;;6.42;78.43;100313.63;4986822;28;20046;-64
2022/10/13 04:04:34;;;;;;;0.10;0.10;;;;;;;6.49;78.05;100308.94;4984201;28;20117;-65
2022/10/13 04:07:00;;;;;;;0.10;0.10;;;;;;;6.56;77.65;100324.28;4984884;28;20156;-65
2022/10/13 04:09:26;;;;;;;0.57;0.20;;;;;;;6.60;77.51;100320.03;4983749;28;20142;-65
2022/10/13 04:11:52;;;;;;;0.10;0.10;;;;;;;6.59;77.38;100321.94;4981204;28;20546;-66
2022/10/13 04:14:18;;;;;;;0.10;0.10;;;;;;;6.59;77.62;100323.81;4985307;28;20049;-65
2022/10/13 04:16:45;;;;;;;0.10;0.10;;;;;;;6.56;77.49;100319.69;4984975;28;20514;-65
2022/10/13 04:19:14;;;;;;;0.20;0.20;;;;;;;6.55;77.44;100322.63;4973912;28;20042;-65
2022/10/13 04:21:41;;;;;;;0.10;0.10;;;;;;;6.55;77.58;100319.91;4976812;28;20584;-66
2022/10/13 04:24:10;;;;;;;0.10;0.10;;;;;;;6.58;77.49;100335.72;4976576;28;20062;-65
2022/10/13 04:26:36;;;;;;;0.25;0.20;;;;;;;6.61;77.42;100333.38;4976249;28;20042;-66
2022/10/13 04:29:09;;;;;;;0.20;0.20;;;;;;;6.67;77.29;100329.72;4982412;28;20061;-64
2022/10/13 04:31:36;;;;;;;0.20;0.20;;;;;;;6.73;77.27;100336.09;4979383;28;20049;-63
2022/10/13 04:34:02;;;;;;;0.30;0.17;;;;;;;6.78;76.83;100338.91;4971707;28;20596;-64
2022/10/13 04:36:30;;;;;;;0.10;0.10;;;;;;;6.77;76.97;100340.00;4979902;28;20562;-67
2022/10/13 04:38:56;;;;;;;0.10;0.10;;;;;;;6.78;76.69;100340.84;4986940;28;20050;-66
2022/10/13 04:41:23;;;;;;;0.10;0.10;;;;;;;6.75;76.57;100336.69;4983930;28;20320;-66
2022/10/13 04:43:49;;;;;;;0.15;0.15;;;;;;;6.77;76.78;100350.06;4968058;28;20050;-65
2022/10/13 04:46:18;;;;;;;0.25;0.25;;;;;;;6.79;76.72;100348.75;4968275;28;20043;-65
2022/10/13 04:48:44;;;;;;;0.10;0.10;;;;;;;6.83;76.60;100349.09;4978159;28;20049;-66
2022/10/13 04:51:13;;;;;;;0.10;0.10;;;;;;;6.88;76.25;100348.38;4978829;28;20097;-66
2022/10/13 04:53:41;;;;;;;0.10;0.10;;;;;;;6.90;75.96;100349.81;4975310;28;20162;-66
2022/10/13 04:56:12;;;;;;;0.22;0.10;;;;;;;6.86;75.99;100355.97;4973945;28;20141;-66
2022/10/13 04:58:39;;;;;;;0.20;0.20;;;;;;;6.86;76.02;100353.25;4970934;28;20514;-66
2022/10/13 05:01:12;;;;;;;0.20;0.17;;;;;;;6.89;75.89;100364.47;4977705;28;20050;-66
2022/10/13 05:03:39;;;;;;;0.45;0.30;;;;;;;6.91;75.90;100354.19;4978889;28;20607;-63
2022/10/13 05:06:05;;;;;;;0.20;0.20;;;;;;;7.01;75.96;100358.19;4981967;28;20058;-63
2022/10/13 05:08:32;;;;;;;0.10;0.10;;;;;;;7.12;75.49;100353.81;4976739;28;20046;-63
2022/10/13 05:11:01;;;;;;;0.10;0.10;;;;;;;7.17;75.25;100362.09;4980699;28;20050;-63
2022/10/13 05:13:29;;;;;;;0.28;0.10;;;;;;;7.22;74.90;100359.47;4986985;28;20050;-63
2022/10/13 05:15:56;;;;;;;0.20;0.20;;;;;;;7.23;74.77;100359.25;4987129;28;20057;-63
2022/10/13 05:18:24;;;;;;;0.47;0.20;;;;;;;7.26;74.45;100360.66;4983763;28;20108;-63
2022/10/13 05:20:49;;;;;;;0.20;0.20;;;;;;;7.29;74.30;100364.78;4977064;28;20050;-63
2022/10/13 05:23:16;;;;;;;0.15;0.15;;;;;;;7.26;73.85;100366.13;4988181;28;20425;-63
2022/10/13 05:25:42;;;;;;;1.95;0.35;;;;;;;7.27;74.11;100361.47;4966982;28;20051;-63
2022/10/13 05:28:13;;;;;;;1.02;0.30;;;;;;;7.27;73.98;100364.19;4967375;28;20537;-63
2022/10/13 05:30:39;;;;;;;0.20;0.20;;;;;;;7.23;73.98;100364.69;4972793;28;20042;-63
2022/10/13 05:33:05;;;;;;;0.20;0.20;;;;;;;7.22;74.25;100360.31;4985404;28;20058;-63
2022/10/13 05:35:31;;;;;;;0.30;0.30;;;;;;;7.27;74.11;100365.03;5001783;28;20403;-63
2022/10/13 05:37:57;;;;;;;1.00;0.22;;;;;;;7.35;73.93;100372.00;4984235;28;20069;-63
2022/10/13 05:40:23;;;;;;;0.20;0.20;;;;;;;7.41;73.70;100360.16;4988053;28;20069;-63
2022/10/13 05:42:55;;;;;;;0.60;0.20;;;;;;;7.43;73.29;100357.22;4988371;28;20054;-63
2022/10/13 05:45:23;;;;;;;0.17;0.17;;;;;;;7.37;73.65;100364.44;4988054;28;20050;-65
2022/10/13 05:47:50;;;;;;;0.10;0.10;;;;;;;7.40;73.85;100363.94;4988945;28;20137;-63
2022/10/13 05:50:16;;;;;;;0.20;0.20;;;;;;;7.47;73.30;100370.06;4972046;28;20058;-63
2022/10/13 05:52:42;;;;;;;0.20;0.20;;;;;;;7.50;72.84;100377.78;4972677;28;20137;-63
2022/10/13 05:55:12;;;;;;;0.20;0.20;;;;;;;7.51;72.79;100365.81;4979264;28;20046;-63
2022/10/13 05:57:41;;;;;;;0.20;0.20;;;;;;;7.61;72.62;100376.09;4968814;28;20065;-64
2022/10/13 06:00:10;;;;;;;1.10;0.20;;;;;;;7.70;72.34;100372.97;4983784;28;20137;-63
2022/10/13 06:02:44;;;;;;;0.63;0.20;;;;;;;7.78;71.82;100367.97;4977528;28;20502;-63
2022/10/13 06:05:15;;;;;;;0.20;0.20;;;;;;;7.82;71.59;100371.03;4979854;28;20073;-66
2022/10/13 06:07:42;;;;;;;0.20;0.20;;;;;;;7.80;71.23;100371.31;4971663;28;20054;-66
2022/10/13 06:10:08;;;;;;;;;;;;;;;7.78;71.49;100376.13;4988752;28;20046;-66
2022/10/13 06:12:37;;;;;;;0.20;0.20;;;;;;;7.80;71.27;100378.63;4970132;28;19932;-66
2022/10/13 06:15:03;;;;;;;0.47;0.20;;;;;;;7.83;71.11;100369.97;4986313;28;20410;-66
2022/10/13 06:17:31;;;;;;;0.60;0.20;;;;;;;7.72;71.60;100368.09;4989347;28;20496;-66
2022/10/13 06:19:58;;;;;;;0.10;0.10;;;;;;;7.41;72.61;100373.75;4990908;28;20046;-66
2022/10/13 06:22:24;;;;;;;0.13;0.13;;;;;;;7.25;73.68;100369.88;4992347;28;20042;-65
2022/10/13 06:24:50;;;;;;;0.20;0.20;;;;;;;7.33;73.68;100380.41;4991304;28;20054;-66
2022/10/13 06:27:17;;;;;;;0.17;0.17;;;;;;;7.40;73.29;100374.81;4992179;28;20083;-66
2022/10/13 06:29:44;;;;;;;;;;;;;;;7.35;73.46;100375.53;4991597;28;20042;-66
2022/10/13 06:32:10;;;;;;;0.20;0.20;;;;;;;7.38;73.23;100383.22;4975571;28;20032;-66
2022/10/13 06:34:36;;;;;;;0.20;0.20;;;;;;;7.35;73.23;100391.88;4993087;28;20139;-66
2022/10/13 06:37:04;;;;;;;0.20;0.20;;;;;;;7.49;73.02;100387.00;4990463;28;20124;-66
2022/10/13 06:39:29;;;;;;;0.22;0.22;;;;;;;7.80;71.89;100384.91;4988622;28;20469;-66
2022/10/13 06:41:58;;;;;;;0.20;0.20;;;;;;;7.97;70.87;100383.28;4989893;28;20046;-65
2022/10/13 06:44:30;;;;;;;0.43;0.22;;;;;;;8.03;70.31;100387.75;4976810;28;20065;-65
2022/10/13 06:47:02;;;;;;;0.20;0.20;;;;;;;7.91;70.34;100391.38;4980919;28;20039;-64
2022/10/13 06:49:28;;;;;;;0.35;0.20;;;;;;;7.78;70.67;100389.75;4975955;28;20070;-63
2022/10/13 06:51:54;;;;;;;0.75;0.20;;;;;;;7.60;71.33;100396.22;4986449;28;20076;-64
2022/10/13 06:54:21;;;;;;;0.47;0.20;;;;;;;7.63;71.30;100398.44;4969583;28;20050;-64
2022/10/13 06:56:47;;;;;;;0.38;0.22;;;;;;;7.70;71.13;100401.03;4964578;28;20162;-63
2022/10/13 06:59:13;;;;;;;0.20;0.20;;;;;;;7.70;70.86;100403.75;4988770;28;20069;-63
2022/10/13 07:01:43;;;;;;;0.20;0.20;;;;;;;7.65;71.27;100409.09;4971442;28;20047;-65
2022/10/13 07:04:11;;;;;;;0.20;0.20;;;;;;;7.48;71.52;100403.56;4971133;28;20053;-63
2022/10/13 07:06:37;;;;;;;0.20;0.20;;;;;;;7.35;72.24;100400.03;4971571;28;20506;-63
2022/10/13 07:09:04;;;;;;;0.20;0.20;;;;;;;7.24;72.43;100409.84;4977598;28;20046;-63
2022/10/13 07:11:32;;;;;;;0.20;0.20;;;;;;;7.28;72.60;100418.38;4974282;28;20587;-63
2022/10/13 07:13:59;;;;;;;0.13;0.13;;;;;;;7.39;72.58;100414.00;4965510;28;20104;-63
2022/10/13 07:16:25;;;;;;;0.20;0.20;;;;;;;7.51;72.20;100411.25;4980845;28;20058;-66
2022/10/13 07:18:51;;;;;;;0.38;0.25;;;;;;;7.47;72.09;100404.63;4990108;28;20058;-64
2022/10/13 07:21:18;;;;;;;0.22;0.20;;;;;;;7.40;72.32;100409.34;4987644;28;20049;-63
2022/10/13 07:23:44;;;;;;;0.13;0.13;;;;;;;7.40;72.44;100414.78;4986109;28;20423;-63
2022/10/13 07:26:12;;;;;;;0.20;0.20;;;;;;;7.46;72.00;100413.88;4966404;28;20047;-64
2022/10/13 07:28:40;;;;;;;0.20;0.20;;;;;;;7.57;71.62;100417.63;4974090;28;20169;-64
2022/10/13 07:31:08;;;;;;;0.32;0.20;;;;;;;7.59;71.48;100408.16;4983515;28;20070;-64
2022/10/13 07:33:37;;;;;;;0.20;0.20;;;;;;;7.73;71.25;100406.00;4988290;28;20129;-66
2022/10/13 07:36:05;;;;;;;0.25;0.25;;;;;;;7.78;70.78;100406.09;4979035;28;20055;-64
2022/10/13 07:38:31;;;;;;;0.20;0.20;;;;;;;7.76;70.67;100402.78;4974307;28;20078;-64
2022/10/13 07:40:59;;;;;;;0.20;0.20;;;;;;;7.70;70.52;100392.88;4982076;28;20096;-65
2022/10/13 07:43:26;;;;;;;0.20;0.20;;;;;;;7.70;70.73;100384.69;4982882;28;20118;-66
2022/10/13 07:45:57;;;;;;;0.20;0.20;;;;;;;7.83;70.26;100399.09;4985972;28;20113;-66
2022/10/13 07:48:24;;;;;;;0.20;0.20;;;;;;;7.97;69.57;100407.81;4978003;28;20197;-66
2022/10/13 07:50:50;;;;;;;0.20;0.20;;;;;;;8.19;68.71;100407.97;4975548;28;20053;-66
2022/10/13 07:53:16;;;;;;;0.20;0.20;;;;;;;8.60;67.46;100410.59;4986552;28;20058;-66
2022/10/13 07:55:42;;;;;;;0.30;0.30;;;;;;;8.91;66.38;100411.94;4974325;28;20047;-64
2022/10/13 07:58:09;;;;;;;0.30;0.30;;;;;;;9.28;65.00;100407.81;4970782;28;20054;-64
2022/10/13 08:00:35;;;;;;;0.20;0.20;;;;;;;9.66;63.12;100416.25;4985004;28;20559;-64
2022/10/13 08:03:03;;;;;;;0.80;0.20;;;;;;;9.89;62.32;100412.44;4971404;28;20134;-64
2022/10/13 08:05:29;;;;;;;0.20;0.20;;;;;;;9.87;61.96;100414.59;4983431;28;20054;-65
2022/10/13 08:07:55;;;;;;;0.30;0.30;;;;;;;10.31;60.80;100411.00;4982581;28;20540;-66
2022/10/13 08:10:21;;;;;;;0.40;0.40;;;;;;;10.89;59.10;100421.34;4968733;28;20047;-64
2022/10/13 08:12:47;;;;;;;0.20;0.20;;;;;;;11.24;57.72;100426.50;4974733;28;20042;-64
2022/10/13 08:15:14;;;;;;;0.20;0.20;;;;;;;11.16;57.59;100414.16;4960084;28;20145;-66
2022/10/13 08:17:40;;;;;;;0.25;0.25;;;;;;;10.82;57.75;100420.75;4977892;28;20051;-64
2022/10/13 08:20:09;;;;;;;0.20;0.20;;;;;;;10.41;58.84;100420.38;4975706;28;20053;-63
2022/10/13 08:22:35;;;;;;;0.45;0.30;;;;;;;10.19;59.30;100423.97;4973059;28;20493;-64
2022/10/13 08:25:02;;;;;;;0.30;0.30;;;;;;;10.07;59.77;100424.94;4969312;28;20518;-64
2022/10/13 08:27:30;;;;;;;0.20;0.20;;;;;;;9.95;60.19;100435.16;4974939;28;20066;-64
2022/10/13 08:29:56;;;;;;;1.15;0.30;;;;;;;9.91;60.53;100434.88;4985600;28;20054;-64
2022/10/13 08:32:22;;;;;;;0.20;0.20;;;;;;;10.03;60.24;100440.19;4968903;28;20062;-66
2022/10/13 08:34:49;;;;;;;0.28;0.28;;;;;;;10.06;60.62;100439.69;4983886;28;20054;-64
2022/10/13 08:37:18;;;;;;;0.30;0.30;;;;;;;10.34;60.18;100435.06;4987593;28;20054;-64
2022/10/13 08:39:44;;;;;;;0.40;0.38;;;;;;;10.85;58.67;100425.69;4984660;28;20105;-64
2022/10/13 08:42:17;;;;;;;0.40;0.38;;;;;;;11.66;56.36;100433.88;4978515;28;20046;-65
2022/10/13 08:44:47;;;;;;;0.40;0.40;;;;;;;12.42;54.46;100425.38;4966448;28;20089;-64
2022/10/13 08:47:23;;;;;;;0.20;0.20;;;;;;;13.23;51.74;100425.66;4964353;28;20062;-67
2022/10/13 08:49:49;;;;;;;0.20;0.20;;;;;;;12.74;52.64;100425.13;4966466;28;20062;-67
2022/10/13 08:52:20;;;;;;;0.20;0.20;;;;;;;11.85;54.62;100420.53;4967518;28;20081;-66
2022/10/13 08:54:48;;;;;;;0.70;0.22;;;;;;;10.89;57.32;100426.81;4979042;28;20062;-63
2022/10/13 08:57:14;;;;;;;0.45;0.20;;;;;;;9.85;60.44;100424.16;4969830;28;20077;-64
2022/10/13 08:59:40;;;;;;;0.20;0.20;;;;;;;9.11;63.11;100424.25;4963545;28;20061;-63
2022/10/13 09:02:12;;;;;;;0.20;0.20;;;;;;;8.83;64.67;100431.44;4971249;28;20043;-63
2022/10/13 09:04:40;;;;;;;0.10;0.10;;;;;;;8.82;65.31;100428.94;4977449;28;20084;-66
2022/10/13 09:07:13;;;;;;;1.02;0.30;;;;;;;8.80;65.80;100426.50;4970664;28;20047;-66
2022/10/13 09:09:41;;;;;;;0.50;0.50;;;;;;;9.69;64.87;100436.78;4971528;28;20051;-66
2022/10/13 09:12:09;;;;;;;0.50;0.50;;;;;;;12.08;57.18;100428.59;4952638;28;20255;-66
2022/10/13 09:14:37;;;;;;;0.40;0.40;;;;;;;13.30;53.19;100433.59;4969020;28;20051;-66
2022/10/13 09:17:17;;;;;;;0.40;0.40;;;;;;;13.89;51.01;100432.06;4976874;28;20548;-67
2022/10/13 09:19:45;;;;;;;0.20;0.20;;;;;;;13.02;52.23;100422.09;4984635;28;20153;-65
2022/10/13 09:22:20;;;;;;;0.20;0.20;;;;;;;11.78;55.79;100425.44;4985424;28;20047;-67
2022/10/13 09:25:03;;;;;;;0.20;0.20;;;;;;;11.07;58.06;100432.97;4984600;28;20112;-67
2022/10/13 09:27:41;;;;;;;0.20;0.20;;;;;;;11.22;58.31;100429.53;4969112;28;20059;-67
2022/10/13 09:30:31;;;;;;;1.00;0.68;;;;;;;12.79;54.59;100426.22;4985196;28;20053;-64
2022/10/13 09:33:23;;;;;;;0.80;0.80;;;;;;;14.18;50.59;100422.28;4970416;28;20081;-66
2022/10/13 09:36:06;;;;;;;0.80;0.80;;;;;;;15.16;48.25;100420.75;4971844;28;20054;-64
2022/10/13 09:38:33;;;;;;;0.57;0.57;;;;;;;15.84;46.40;100416.13;4973842;28;20137;-64
2022/10/13 09:41:03;;;;;;;0.20;0.20;;;;;;;14.98;46.71;100425.03;4978276;28;20054;-64
2022/10/13 09:43:34;;;;;;;0.35;0.28;;;;;;;13.54;49.72;100427.50;4979675;28;20046;-64
2022/10/13 09:46:02;;;;;;;0.38;0.20;;;;;;;12.02;53.06;100416.78;4984817;28;20054;-64
2022/10/13 09:48:31;;;;;;;0.20;0.20;;;;;;;10.95;56.37;100432.34;4980085;28;20050;-66
2022/10/13 09:50:58;;;;;;;0.50;0.50;;;;;;;10.85;57.40;100425.69;4976039;28;20133;-66
2022/10/13 09:53:31;;;;;;;0.80;0.80;;;;;;;11.57;55.86;100421.78;4951226;28;20054;-66
2022/10/13 09:56:17;;;;;;;0.20;0.20;;;;;;;12.14;53.45;100417.38;4963401;28;20058;-66
2022/10/13 09:58:49;;;;;;;0.80;0.80;;;;;;;12.47;52.38;100417.97;4963613;28;20053;-67
2022/10/13 10:01:24;;;;;;;0.20;0.20;;;;;;;13.15;50.44;100423.44;4979100;28;20057;-64
2022/10/13 10:03:51;;;;;;;0.30;0.30;;;;;;;12.55;52.11;100413.03;4959915;28;20108;-65
2022/10/13 10:06:17;;;;;;;0.20;0.20;;;;;;;12.00;54.03;100422.50;4980507;28;20059;-64
2022/10/13 10:08:51;;;;;;;0.25;0.25;;;;;;;11.62;54.89;100417.13;4975901;28;20051;-65
2022/10/13 10:11:28;;;;;;;0.32;0.32;;;;;;;11.44;54.96;100415.69;4976267;28;20058;-64
2022/10/13 10:13:54;;;;;;;0.40;0.40;;;;;;;12.71;52.35;100417.44;4972710;28;20058;-65
2022/10/13 10:16:30;;;;;;;0.90;0.90;;;;;;;13.74;49.98;100421.97;4979330;28;20073;-66
2022/10/13 10:19:02;;;;;;;0.40;0.40;;;;;;;15.19;45.99;100422.91;4966744;28;20054;-66
2022/10/13 10:21:36;;;;;;;1.00;1.00;;;;;;;14.64;46.03;100418.41;4974359;28;20097;-66
2022/10/13 10:24:10;;;;;;;0.30;0.30;;;;;;;14.36;46.62;100418.06;4983333;28;20584;-67
2022/10/13 10:26:50;;;;;;;0.30;0.30;;;;;;;13.85;47.71;100421.91;4983612;28;20458;-64
2022/10/13 10:29:26;;;;;;;0.60;0.60;;;;;;;14.58;46.63;100417.63;4984834;28;20436;-66
2022/10/13 10:32:10;;;;;;;0.30;0.30;;;;;;;14.21;46.91;100418.16;4978246;28;20051;-64
2022/10/13 10:34:44;;;;;;;0.28;0.28;;;;;;;13.10;49.50;100418.78;4969656;28;20145;-65
2022/10/13 10:37:15;;;;;;;0.30;0.30;;;;;;;12.58;51.42;100421.56;4973070;28;20442;-64
2022/10/13 10:39:47;;;;;;;0.30;0.30;;;;;;;12.62;52.13;100417.16;4968709;28;20044;-64
2022/10/13 10:42:31;;;;;;;0.22;0.22;;;;;;;12.56;51.73;100414.69;4975795;28;20422;-64
2022/10/13 10:45:00;;;;;;;0.50;0.50;;;;;;;12.91;51.46;100418.56;4968791;28;20055;-67
2022/10/13 10:47:29;;;;;;;0.50;0.50;;;;;;;13.28;50.35;100419.31;4983958;28;20114;-67
2022/10/13 10:50:05;;;;;;;0.40;0.40;;;;;;;13.75;49.16;100417.28;4968039;28;20050;-67
2022/10/13 10:52:40;;;;;;;0.30;0.30;;;;;;;13.53;49.38;100417.63;4969299;28;20043;-64
2022/10/13 10:55:16;;;;;;;0.40;0.40;;;;;;;12.95;50.77;100422.38;4965697;28;20053;-64
2022/10/13 10:57:56;;;;;;;0.30;0.30;;;;;;;12.15;52.75;100420.94;4987718;28;20057;-64
2022/10/13 11:00:23;;;;;;;0.30;0.30;;;;;;;11.47;54.76;100419.81;4975181;28;20525;-63
2022/10/13 11:02:57;;;;;;;0.30;0.30;;;;;;;11.11;56.03;100425.91;4971455;28;20514;-64
2022/10/13 11:05:25;;;;;;;0.30;0.30;;;;;;;11.01;55.88;100420.34;4972698;28;20066;-64
2022/10/13 11:07:58;;;;;;;;;;;;;;;11.27;55.66;100415.06;4955860;28;20116;-66
2022/10/13 11:10:26;;;;;;;1.15;1.10;;;;;;;13.46;51.44;100413.25;4989368;28;19953;-66
2022/10/13 11:13:29;;;;;;;1.17;1.17;;;;;;;16.43;44.42;100413.13;4988857;28;20601;-67
2022/10/13 11:15:55;;;;;;;1.40;1.30;;;;;;;17.83;40.75;100416.16;4970680;28;20059;-67
2022/10/13 11:19:04;;;;;;;1.00;1.00;;;;;;;17.64;40.23;100421.00;4972334;28;20049;-67
2022/10/13 11:22:12;;;;;;;1.30;1.20;;;;;;;16.97;40.91;100423.03;4970303;28;20382;-67
2022/10/13 11:25:02;;;;;;;1.40;1.30;;;;;;;17.90;39.58;100409.41;4989843;28;20046;-64
2022/10/13 11:27:41;;;;;;;1.30;1.20;;;;;;;19.55;36.27;100421.19;4991529;28;20077;-64
2022/10/13 11:30:41;;;;;;;1.40;1.30;;;;;;;20.17;35.20;100411.09;4989828;28;20428;-65
2022/10/13 11:33:46;;;;;;;1.08;1.08;;;;;;;19.52;34.68;100417.09;4970210;28;20046;-67
2022/10/13 11:36:40;;;;;;;1.30;1.20;;;;;;;17.42;37.47;100419.78;4982614;28;20042;-67
2022/10/13 11:39:37;;;;;;;1.40;1.30;;;;;;;18.09;36.61;100417.56;4982314;28;20100;-67
2022/10/13 11:42:18;;;;;;;0.80;0.80;;;;;;;18.24;36.02;100410.91;4980901;28;20121;-67
2022/10/13 11:44:52;;;;;;;1.30;1.20;;;;;;;17.86;36.52;100411.97;4970027;28;20572;-67